Tsuruoka, Japan
Current Conditions -  °F | °C
As of 9:00 AM on Monday 22 Dec 2014 (Local Time) from RJSY Reporting Station
Snow Showers Snow Showers  
Wind Chill: 24°   Ceiling: 4000
Heat Index: 34°   Visibility: 6mi
Dew Point: 25°   Wind: 15mph
Humidity: 70%   Direction: 310°NW
Pressure: 29.8"   Gusts: 28mph
Location:  38.73°N, 139.82°E
Report Text: RJSY 220000Z 31013G24KT 260V360 9999 -SHSN FEW005 SCT025 BKN040 01/M04 Q1009
Loading
Personal Weather Stations






























Interactive Weather Map New forecast layout! Learn more

10-Day Weather Forecast

Advertisements
Track Severe Weather on mobile